createdAt,value
2023-03-29T00:00:40.507Z,97615.41
2023-03-29T00:03:08.707Z,97611.97
2023-03-29T00:05:39.188Z,97618.00
2023-03-29T00:08:05.789Z,97623.19
2023-03-29T00:10:33.751Z,97626.66
2023-03-29T00:13:06.283Z,97630.09
2023-03-29T00:15:32.934Z,97625.81
2023-03-29T00:17:59.816Z,97632.69
2023-03-29T00:20:28.847Z,97631.84
2023-03-29T00:22:55.813Z,97632.69
2023-03-29T00:25:22.770Z,97635.28
2023-03-29T00:27:49.572Z,97634.44
2023-03-29T00:30:16.909Z,97636.16
2023-03-29T00:32:43.807Z,97628.38
2023-03-29T00:35:11.153Z,97631.84
2023-03-29T00:37:42.555Z,97636.16
2023-03-29T00:40:11.777Z,97627.53
2023-03-29T00:42:40.687Z,97624.94
2023-03-29T00:45:21.343Z,97624.06
2023-03-29T00:48:07.156Z,97626.66
2023-03-29T00:50:43.622Z,97621.50
2023-03-29T00:53:29.891Z,97624.94
2023-03-29T00:56:21.699Z,97614.56
2023-03-29T00:58:55.433Z,97622.34
2023-03-29T01:01:34.213Z,97621.50
2023-03-29T01:04:18.697Z,97620.59
2023-03-29T01:06:58.220Z,97618.88
2023-03-29T01:09:29.895Z,97616.28
2023-03-29T01:11:59.544Z,97607.66
2023-03-29T01:14:41.870Z,97614.56
2023-03-29T01:17:10.502Z,97609.38
2023-03-29T01:19:59.259Z,97620.59
2023-03-29T01:22:58.290Z,97619.75
2023-03-29T01:25:31.439Z,97611.09
2023-03-29T01:28:03.493Z,97615.44
2023-03-29T01:30:49.903Z,97611.97
2023-03-29T01:33:24.014Z,97616.31
2023-03-29T01:36:05.132Z,97618.03
2023-03-29T01:38:51.737Z,97617.16
2023-03-29T01:41:18.372Z,97626.66
2023-03-29T01:43:56.380Z,97626.66
2023-03-29T01:46:45.678Z,97629.25
2023-03-29T01:49:36.567Z,97624.06
2023-03-29T01:52:22.882Z,97626.66
2023-03-29T01:55:04.224Z,97624.94
2023-03-29T01:57:33.019Z,97624.09
2023-03-29T02:00:09.887Z,97623.22
2023-03-29T02:02:47.565Z,97624.94
2023-03-29T02:05:17.603Z,97618.88
2023-03-29T02:07:47.652Z,97607.66
2023-03-29T02:10:18.842Z,97627.53
2023-03-29T02:12:47.216Z,97611.09
2023-03-29T02:15:19.524Z,97613.69
2023-03-29T02:17:52.878Z,97617.16
2023-03-29T02:20:33.758Z,97624.06
2023-03-29T02:23:15.010Z,97624.06
2023-03-29T02:25:46.668Z,97616.25
2023-03-29T02:28:17.315Z,97627.50
2023-03-29T02:30:55.511Z,97626.63
2023-03-29T02:33:31.453Z,97625.81
2023-03-29T02:36:08.139Z,97635.28
2023-03-29T02:38:35.922Z,97624.94
2023-03-29T02:41:07.612Z,97631.00
2023-03-29T02:43:36.018Z,97634.44
2023-03-29T02:46:07.969Z,97638.75
2023-03-29T02:48:38.461Z,97634.41
2023-03-29T02:51:20.220Z,97634.41
2023-03-29T02:54:18.619Z,97624.06
2023-03-29T02:57:04.919Z,97636.13
2023-03-29T02:59:33.474Z,97641.31
2023-03-29T03:02:01.037Z,97639.59
2023-03-29T03:04:29.337Z,97635.28
2023-03-29T03:07:01.280Z,97643.91
2023-03-29T03:09:28.372Z,97652.50
2023-03-29T03:11:55.006Z,97640.44
2023-03-29T03:14:22.953Z,97643.06
2023-03-29T03:16:52.979Z,97644.78
2023-03-29T03:19:22.993Z,97647.34
2023-03-29T03:21:56.005Z,97640.47
2023-03-29T03:24:32.671Z,97646.47
2023-03-29T03:27:02.071Z,97651.66
2023-03-29T03:29:32.019Z,97650.81
2023-03-29T03:31:59.154Z,97647.34
2023-03-29T03:34:29.465Z,97648.22
2023-03-29T03:36:58.529Z,97650.81
2023-03-29T03:39:25.231Z,97655.09
2023-03-29T03:41:53.929Z,97649.03
2023-03-29T03:44:55.020Z,97654.25
2023-03-29T03:47:24.818Z,97650.75
2023-03-29T03:49:51.674Z,97649.88
2023-03-29T03:52:19.117Z,97656.81
2023-03-29T03:54:46.710Z,97656.81
2023-03-29T03:57:13.559Z,97649.91
2023-03-29T03:59:42.870Z,97666.28
2023-03-29T04:02:12.937Z,97661.09
2023-03-29T04:04:43.016Z,97663.66
2023-03-29T04:07:14.463Z,97667.97
2023-03-29T04:09:48.724Z,97657.66
2023-03-29T04:12:22.348Z,97671.50
2023-03-29T04:14:49.084Z,97667.19
2023-03-29T04:17:15.726Z,97677.53
2023-03-29T04:19:45.443Z,97680.97
2023-03-29T04:22:12.062Z,97685.28
2023-03-29T04:24:38.673Z,97696.50
2023-03-29T04:27:06.489Z,97697.34
2023-03-29T04:29:35.418Z,97686.97
2023-03-29T04:32:06.732Z,97706.84
2023-03-29T04:34:33.386Z,97706.00
2023-03-29T04:37:00.046Z,97711.19
2023-03-29T04:39:36.390Z,97713.69
2023-03-29T04:42:05.603Z,97704.16
2023-03-29T04:44:35.149Z,97717.03
2023-03-29T04:47:01.988Z,97718.78
2023-03-29T04:49:31.738Z,97717.09
2023-03-29T04:51:58.316Z,97714.53
2023-03-29T04:54:24.905Z,97742.25
2023-03-29T04:56:53.938Z,97711.97
2023-03-29T04:59:22.527Z,97718.94
2023-03-29T05:01:55.277Z,97722.41
2023-03-29T05:04:22.020Z,97730.22
2023-03-29T05:06:54.099Z,97721.50
2023-03-29T05:09:23.347Z,97719.00
2023-03-29T05:11:52.632Z,97724.16
2023-03-29T05:14:19.261Z,97731.88
2023-03-29T05:16:49.069Z,97733.63
2023-03-29T05:19:19.118Z,97733.72
2023-03-29T05:21:57.384Z,97745.81
2023-03-29T05:24:24.018Z,97738.75
2023-03-29T05:26:53.421Z,97738.00
2023-03-29T05:29:24.977Z,97744.97
2023-03-29T05:31:54.793Z,97740.56
2023-03-29T05:34:25.118Z,97748.38
2023-03-29T05:36:54.260Z,97744.94
2023-03-29T05:39:21.207Z,97744.09
2023-03-29T05:41:52.692Z,97744.97
2023-03-29T05:44:19.467Z,97749.31
2023-03-29T05:46:52.419Z,97750.16
2023-03-29T05:49:19.164Z,97763.16
2023-03-29T05:51:48.917Z,97748.38
2023-03-29T05:54:17.791Z,97749.22
2023-03-29T05:56:46.244Z,97764.84
2023-03-29T05:59:16.597Z,97763.09
2023-03-29T06:01:45.478Z,97787.19
2023-03-29T06:04:15.863Z,97769.13
2023-03-29T06:06:42.632Z,97770.91
2023-03-29T06:09:09.876Z,97770.94
2023-03-29T06:11:36.591Z,97775.22
2023-03-29T06:14:03.515Z,97776.97
2023-03-29T06:16:33.894Z,97789.00
2023-03-29T06:19:04.699Z,97792.28
2023-03-29T06:21:36.576Z,97804.25
2023-03-29T06:24:06.939Z,97809.31
2023-03-29T06:26:33.727Z,97821.31
2023-03-29T06:29:00.328Z,97815.44
2023-03-29T06:31:27.167Z,97815.50
2023-03-29T06:33:53.791Z,97809.53
2023-03-29T06:36:23.352Z,97806.16
2023-03-29T06:38:56.951Z,97813.97
2023-03-29T06:41:25.133Z,97827.78
2023-03-29T06:43:51.870Z,97821.78
2023-03-29T06:46:26.420Z,97822.63
2023-03-29T06:48:53.462Z,97834.66
2023-03-29T06:51:23.373Z,97838.25
2023-03-29T06:53:56.249Z,97838.16
2023-03-29T06:56:26.539Z,97830.53
2023-03-29T06:58:58.491Z,97836.66
2023-03-29T07:01:25.143Z,97831.53
2023-03-29T07:03:53.730Z,97831.47
2023-03-29T07:06:24.328Z,97832.47
2023-03-29T07:08:52.479Z,97835.97
2023-03-29T07:11:20.478Z,97828.13
2023-03-29T07:13:49.286Z,97851.47
2023-03-29T07:16:19.442Z,97850.66
2023-03-29T07:18:48.553Z,97857.59
2023-03-29T07:21:17.533Z,97853.25
2023-03-29T07:23:46.263Z,97848.00
2023-03-29T07:26:28.828Z,97844.59
2023-03-29T07:28:58.467Z,97841.03
2023-03-29T07:31:30.531Z,97830.69
2023-03-29T07:36:43.841Z,97840.19
2023-03-29T07:39:12.972Z,97854.91
2023-03-29T07:41:39.568Z,97853.25
2023-03-29T07:44:11.356Z,97847.19
2023-03-29T07:46:41.119Z,97850.59
2023-03-29T07:49:08.233Z,97857.50
2023-03-29T07:51:39.318Z,97849.69
2023-03-29T07:54:09.311Z,97839.34
2023-03-29T07:56:39.024Z,97862.75
2023-03-29T07:59:10.224Z,97858.38
2023-03-29T08:01:41.140Z,97854.78
2023-03-29T08:04:08.114Z,97868.72
2023-03-29T08:06:38.779Z,97860.09
2023-03-29T08:09:07.021Z,97853.06
2023-03-29T08:11:40.758Z,97857.44
2023-03-29T08:14:09.492Z,97852.13
2023-03-29T08:16:49.311Z,97859.94
2023-03-29T08:19:26.723Z,97852.16
2023-03-29T08:21:56.661Z,97847.94
2023-03-29T08:24:33.883Z,97862.69
2023-03-29T08:27:00.815Z,97872.88
2023-03-29T08:29:30.473Z,97869.41
2023-03-29T08:31:58.413Z,97880.84
2023-03-29T08:34:25.106Z,97873.97
2023-03-29T08:36:53.125Z,97898.25
2023-03-29T08:39:19.986Z,97936.34
2023-03-29T08:41:46.713Z,97921.56
2023-03-29T08:44:20.500Z,97919.00
2023-03-29T08:47:03.165Z,97893.06
2023-03-29T08:49:30.955Z,97898.13
2023-03-29T08:52:07.967Z,97901.50
2023-03-29T08:54:43.701Z,97930.19
2023-03-29T08:57:22.835Z,97911.25
2023-03-29T08:59:58.025Z,97921.59
2023-03-29T09:02:29.799Z,97916.22
2023-03-29T09:05:08.002Z,97917.16
2023-03-29T09:07:37.557Z,97925.94
2023-03-29T09:10:04.507Z,97927.50
2023-03-29T09:12:57.308Z,97917.88
2023-03-29T09:16:20.851Z,97917.25
2023-03-29T09:19:29.036Z,97953.63
2023-03-29T09:22:17.953Z,97923.34
2023-03-29T09:24:56.516Z,97925.81
2023-03-29T09:27:39.399Z,97919.69
2023-03-29T09:30:12.173Z,97927.41
2023-03-29T09:33:07.921Z,97927.16
2023-03-29T09:35:43.550Z,97912.84
2023-03-29T09:38:16.370Z,97921.50
2023-03-29T09:40:59.467Z,97919.78
2023-03-29T09:43:36.203Z,97910.75
2023-03-29T09:46:06.804Z,97930.56
2023-03-29T09:48:41.029Z,97935.25
2023-03-29T09:51:14.704Z,97933.56
2023-03-29T09:53:41.319Z,97924.13
2023-03-29T09:56:08.740Z,97919.72
2023-03-29T09:58:40.640Z,97927.50
2023-03-29T10:01:12.344Z,97919.84
2023-03-29T10:03:49.227Z,97909.16
2023-03-29T10:06:17.781Z,97911.81
2023-03-29T10:09:03.692Z,97920.56
2023-03-29T10:11:34.417Z,97922.38
2023-03-29T10:14:26.230Z,97921.56
2023-03-29T10:16:59.230Z,97918.13
2023-03-29T10:19:35.258Z,97931.16
2023-03-29T10:22:18.127Z,97939.84
2023-03-29T10:24:55.309Z,97922.53
2023-03-29T10:27:25.154Z,97932.03
2023-03-29T10:29:54.731Z,97927.66
2023-03-29T10:32:37.727Z,97926.72
2023-03-29T10:35:13.415Z,97924.03
2023-03-29T10:37:43.267Z,97918.84
2023-03-29T10:40:25.497Z,97921.38
2023-03-29T10:42:54.111Z,97910.94
2023-03-29T10:45:27.172Z,97919.44
2023-03-29T10:47:56.687Z,97914.44
2023-03-29T10:50:23.959Z,97923.78
2023-03-29T10:52:51.196Z,97920.06
2023-03-29T10:55:20.965Z,97932.97
2023-03-29T10:58:09.419Z,97922.22
2023-03-29T11:00:57.144Z,97915.25
2023-03-29T11:04:04.204Z,97910.75
2023-03-29T11:06:59.818Z,97916.53
2023-03-29T11:09:38.582Z,97907.22
2023-03-29T11:12:45.568Z,97907.31
2023-03-29T11:18:42.877Z,97894.63
2023-03-29T11:21:34.090Z,97894.84
2023-03-29T11:24:18.911Z,97897.97
2023-03-29T11:26:53.751Z,97886.13
2023-03-29T11:29:28.184Z,97904.66
2023-03-29T11:32:00.507Z,97900.00
2023-03-29T11:35:03.279Z,97906.72
2023-03-29T11:37:42.126Z,97874.47
2023-03-29T11:40:36.265Z,97865.28
2023-03-29T11:43:13.448Z,97854.94
2023-03-29T11:45:46.274Z,97870.03
2023-03-29T11:48:23.597Z,97867.75
2023-03-29T11:51:27.512Z,97867.91
2023-03-29T11:54:04.189Z,97864.47
2023-03-29T11:56:44.274Z,97855.94
2023-03-29T11:59:42.816Z,97868.34
2023-03-29T12:02:42.555Z,97858.97
2023-03-29T12:05:21.098Z,97865.88
2023-03-29T12:07:58.346Z,97851.31
2023-03-29T12:10:36.513Z,97849.16
2023-03-29T12:13:26.229Z,97847.94
2023-03-29T12:16:07.279Z,97846.09
2023-03-29T12:18:45.480Z,97849.22
2023-03-29T12:21:27.901Z,97859.00
2023-03-29T12:23:54.686Z,97856.16
2023-03-29T12:26:40.502Z,97875.06
2023-03-29T12:29:37.536Z,97859.69
2023-03-29T12:32:26.908Z,97860.34
2023-03-29T12:34:53.510Z,97854.81
2023-03-29T12:37:23.446Z,97844.63
2023-03-29T12:39:55.452Z,97858.00
2023-03-29T12:42:26.735Z,97847.03
2023-03-29T12:45:00.743Z,97853.69
2023-03-29T12:47:34.088Z,97853.38
2023-03-29T12:50:02.047Z,97843.94
2023-03-29T12:52:33.781Z,97839.88
2023-03-29T12:55:12.014Z,97844.53
2023-03-29T12:57:43.206Z,97844.13
2023-03-29T13:00:28.084Z,97842.91
2023-03-29T13:03:05.126Z,97853.66
2023-03-29T13:05:39.333Z,97834.31
2023-03-29T13:08:36.815Z,97844.13
2023-03-29T13:11:06.866Z,97839.22
2023-03-29T13:13:39.740Z,97848.50
2023-03-29T13:16:34.929Z,97850.19
2023-03-29T13:19:34.282Z,97849.91
2023-03-29T13:22:42.493Z,97861.81
2023-03-29T13:26:18.410Z,97849.66
2023-03-29T13:29:00.723Z,97852.16
2023-03-29T13:31:52.046Z,97835.25
2023-03-29T13:34:34.957Z,97839.91
2023-03-29T13:37:42.311Z,97857.22
2023-03-29T13:40:31.469Z,97841.97
2023-03-29T13:43:40.586Z,97836.50
2023-03-29T13:46:43.519Z,97838.16
2023-03-29T13:52:29.343Z,97837.06
2023-03-29T13:55:46.726Z,97849.31
2023-03-29T14:04:52.225Z,97835.28
2023-03-29T14:07:26.326Z,97827.16
2023-03-29T14:09:55.612Z,97831.56
2023-03-29T14:12:41.138Z,97832.00
2023-03-29T14:15:24.863Z,97831.59
2023-03-29T14:18:01.980Z,97828.53
2023-03-29T14:20:32.981Z,97822.06
2023-03-29T14:23:10.030Z,97837.19
2023-03-29T14:25:42.555Z,97826.97
2023-03-29T14:31:36.119Z,97829.69
2023-03-29T14:34:28.033Z,97819.03
2023-03-29T14:36:54.818Z,97825.69
2023-03-29T14:39:28.403Z,97824.94
2023-03-29T14:41:59.406Z,97827.13
2023-03-29T14:44:30.137Z,97829.38
2023-03-29T14:49:50.040Z,97824.81
2023-03-29T14:52:19.006Z,97849.06
2023-03-29T14:54:50.179Z,97829.97
2023-03-29T14:57:22.515Z,97828.22
2023-03-29T14:59:58.188Z,97829.25
2023-03-29T15:02:32.039Z,97828.84
2023-03-29T15:05:04.865Z,97832.19
2023-03-29T15:07:39.363Z,97826.34
2023-03-29T15:10:12.986Z,97836.28
2023-03-29T15:12:45.328Z,97844.13
2023-03-29T15:15:16.899Z,97826.97
2023-03-29T15:17:50.968Z,97815.56
2023-03-29T15:20:33.820Z,97830.75
2023-03-29T15:23:10.043Z,97822.97
2023-03-29T15:25:45.994Z,97824.06
2023-03-29T15:28:30.147Z,97839.09
2023-03-29T15:31:16.186Z,97831.00
2023-03-29T15:33:50.192Z,97837.34
2023-03-29T15:36:22.254Z,97822.91
2023-03-29T15:38:53.485Z,97847.03
2023-03-29T15:41:20.437Z,97840.44
2023-03-29T15:43:50.985Z,97840.72
2023-03-29T15:46:18.904Z,97837.28
2023-03-29T15:48:45.948Z,97839.31
2023-03-29T15:51:16.184Z,97844.09
2023-03-29T15:53:43.114Z,97847.59
2023-03-29T15:56:17.891Z,97842.84
2023-03-29T15:58:44.904Z,97844.50
2023-03-29T16:01:23.799Z,97851.66
2023-03-29T16:03:51.139Z,97853.72
2023-03-29T16:06:19.170Z,97852.94
2023-03-29T16:08:46.176Z,97852.69
2023-03-29T16:11:12.737Z,97860.28
2023-03-29T16:13:39.506Z,97861.88
2023-03-29T16:16:07.016Z,97864.91
2023-03-29T16:18:33.987Z,97869.91
2023-03-29T16:21:03.447Z,97862.50
2023-03-29T16:23:30.217Z,97858.94
2023-03-29T16:26:02.811Z,97867.63
2023-03-29T16:28:29.640Z,97881.28
2023-03-29T16:30:56.286Z,97885.75
2023-03-29T16:33:28.569Z,97888.47
2023-03-29T16:35:58.034Z,97890.16
2023-03-29T16:38:42.245Z,97888.47
2023-03-29T16:41:14.996Z,97893.91
2023-03-29T16:43:42.140Z,97889.56
2023-03-29T16:46:17.286Z,97898.13
2023-03-29T16:48:51.433Z,97898.38
2023-03-29T16:51:18.693Z,97891.50
2023-03-29T16:53:48.838Z,97900.16
2023-03-29T16:56:15.926Z,97896.72
2023-03-29T16:58:42.673Z,97899.31
2023-03-29T17:01:21.343Z,97896.84
2023-03-29T17:03:48.097Z,97903.75
2023-03-29T17:06:21.190Z,97911.47
2023-03-29T17:08:51.897Z,97912.44
2023-03-29T17:11:24.065Z,97923.81
2023-03-29T17:13:50.729Z,97923.03
2023-03-29T17:16:20.785Z,97931.63
2023-03-29T17:18:51.174Z,97926.50
2023-03-29T17:21:19.685Z,97936.97
2023-03-29T17:23:46.705Z,97944.78
2023-03-29T17:26:15.719Z,97943.09
2023-03-29T17:28:47.965Z,97954.38
2023-03-29T17:31:15.976Z,97964.00
2023-03-29T17:33:42.762Z,97964.91
2023-03-29T17:36:09.890Z,97972.66
2023-03-29T17:38:41.268Z,97975.28
2023-03-29T17:41:08.315Z,97976.16
2023-03-29T17:43:40.372Z,97984.84
2023-03-29T17:46:11.902Z,97986.59
2023-03-29T17:48:39.460Z,97985.69
2023-03-29T17:51:10.717Z,97986.59
2023-03-29T17:53:37.611Z,98001.34
2023-03-29T17:56:04.641Z,97996.09
2023-03-29T17:58:33.896Z,97999.59
2023-03-29T18:01:16.874Z,98008.28
2023-03-29T18:03:43.589Z,98006.53
2023-03-29T18:06:10.197Z,98010.00
2023-03-29T18:08:43.248Z,98009.16
2023-03-29T18:11:14.271Z,98013.47
2023-03-29T18:13:43.440Z,98012.63
2023-03-29T18:16:10.562Z,98014.31
2023-03-29T18:18:41.694Z,98020.41
2023-03-29T18:21:10.366Z,98019.53
2023-03-29T18:23:43.331Z,98025.63
2023-03-29T18:26:10.219Z,98027.34
2023-03-29T18:28:40.126Z,98029.06
2023-03-29T18:31:09.713Z,98028.22
2023-03-29T18:33:39.739Z,98029.94
2023-03-29T18:36:13.226Z,98032.53
2023-03-29T18:38:44.886Z,98030.81
2023-03-29T18:41:13.170Z,98031.69
2023-03-29T18:43:48.056Z,98033.41
2023-03-29T18:46:20.786Z,98029.06
2023-03-29T18:48:47.689Z,98030.81
2023-03-29T18:51:18.112Z,98023.00
2023-03-29T18:53:44.774Z,98027.34
2023-03-29T18:56:14.259Z,98023.00
2023-03-29T18:58:41.097Z,98022.16
2023-03-29T19:01:14.312Z,98024.75
2023-03-29T19:03:41.366Z,98018.66
2023-03-29T19:06:08.469Z,98029.09
2023-03-29T19:08:41.563Z,98019.53
2023-03-29T19:11:11.376Z,98023.88
2023-03-29T19:13:40.958Z,98034.25
2023-03-29T19:16:10.472Z,98035.13
2023-03-29T19:18:39.156Z,98025.59
2023-03-29T19:21:05.898Z,98024.75
2023-03-29T19:23:32.757Z,98029.91
2023-03-29T19:26:06.569Z,98029.94
2023-03-29T19:28:38.966Z,98022.16
2023-03-29T19:31:09.780Z,98024.72
2023-03-29T19:33:40.847Z,98022.13
2023-03-29T19:36:13.187Z,98022.13
2023-03-29T19:38:47.501Z,98020.41
2023-03-29T19:41:21.510Z,98019.53
2023-03-29T19:43:48.246Z,98010.00
2023-03-29T19:46:19.997Z,98026.47
2023-03-29T19:49:04.341Z,98022.16
2023-03-29T19:51:48.037Z,98018.69
2023-03-29T19:54:17.128Z,98018.66
2023-03-29T19:56:46.463Z,98019.50
2023-03-29T19:59:17.771Z,98023.88
2023-03-29T20:01:51.135Z,98019.53
2023-03-29T20:04:20.039Z,98022.97
2023-03-29T20:06:46.817Z,98027.28
2023-03-29T20:09:16.087Z,98027.28
2023-03-29T20:11:46.908Z,98029.03
2023-03-29T20:14:14.116Z,98033.38
2023-03-29T20:16:41.844Z,98032.53
2023-03-29T20:19:14.255Z,98031.66
2023-03-29T20:21:42.188Z,98027.31
2023-03-29T20:24:09.472Z,98036.84
2023-03-29T20:26:39.121Z,98033.38
2023-03-29T20:29:06.336Z,98034.25
2023-03-29T20:31:34.940Z,98037.69
2023-03-29T20:34:06.320Z,98034.19
2023-03-29T20:36:33.784Z,98036.75
2023-03-29T20:39:01.292Z,98042.78
2023-03-29T20:41:31.689Z,98042.72
2023-03-29T20:44:02.979Z,98039.28
2023-03-29T20:46:38.808Z,98036.66
2023-03-29T20:49:08.943Z,98035.78
2023-03-29T20:51:42.515Z,98022.84
2023-03-29T20:54:11.632Z,98034.94
2023-03-29T20:56:42.365Z,98040.06
2023-03-29T20:59:14.164Z,98039.13
2023-03-29T21:01:43.207Z,98047.72
2023-03-29T21:04:14.585Z,98043.31
2023-03-29T21:06:41.167Z,98044.16
2023-03-29T21:09:10.888Z,98044.09
2023-03-29T21:11:42.811Z,98042.31
2023-03-29T21:14:09.543Z,98049.25
2023-03-29T21:16:36.632Z,98043.16
2023-03-29T21:19:05.339Z,98042.22
2023-03-29T21:21:33.725Z,98043.03
2023-03-29T21:24:00.688Z,98036.97
2023-03-29T21:26:28.166Z,98036.91
2023-03-29T21:28:54.838Z,98039.50
2023-03-29T21:31:21.521Z,98041.19
2023-03-29T21:33:48.192Z,98044.59
2023-03-29T21:36:14.839Z,98039.41
2023-03-29T21:38:43.328Z,98039.38
2023-03-29T21:41:12.832Z,98040.97
2023-03-29T21:43:42.604Z,98045.25
2023-03-29T21:46:12.275Z,98046.13
2023-03-29T21:48:39.077Z,98040.09
2023-03-29T21:51:09.349Z,98051.31
2023-03-29T21:53:39.092Z,98051.25
2023-03-29T21:56:06.650Z,98050.38
2023-03-29T21:58:35.628Z,98052.09
2023-03-29T22:01:07.331Z,98053.78
2023-03-29T22:03:34.221Z,98052.03
2023-03-29T22:06:09.624Z,98057.13
2023-03-29T22:08:44.613Z,98051.16
2023-03-29T22:11:14.405Z,98046.84
2023-03-29T22:13:45.510Z,98057.16
2023-03-29T22:16:19.611Z,98045.03
2023-03-29T22:18:50.506Z,98053.72
2023-03-29T22:21:24.915Z,98050.22
2023-03-29T22:23:55.494Z,98047.59
2023-03-29T22:26:25.135Z,98055.38
2023-03-29T22:28:51.728Z,98053.59
2023-03-29T22:31:21.171Z,98057.88
2023-03-29T22:33:48.048Z,98057.84
2023-03-29T22:36:24.363Z,98059.53
2023-03-29T22:38:56.315Z,98067.22
2023-03-29T22:41:26.144Z,98055.16
2023-03-29T22:43:54.294Z,98068.09
2023-03-29T22:46:21.397Z,98067.94
2023-03-29T22:48:48.216Z,98066.13
2023-03-29T22:51:15.304Z,98069.56
2023-03-29T22:53:42.046Z,98074.75
2023-03-29T22:56:10.975Z,98068.69
2023-03-29T22:58:46.009Z,98071.31
2023-03-29T23:01:13.214Z,98074.66
2023-03-29T23:03:39.942Z,98078.06
2023-03-29T23:06:06.961Z,98084.81
2023-03-29T23:08:35.076Z,98086.50
2023-03-29T23:11:07.782Z,98089.94
2023-03-29T23:13:35.348Z,98083.13
2023-03-29T23:16:03.870Z,98081.38
2023-03-29T23:18:33.761Z,98080.47
2023-03-29T23:21:01.768Z,98081.31
2023-03-29T23:23:31.824Z,98082.91
2023-03-29T23:26:00.853Z,98084.53
2023-03-29T23:28:30.749Z,98091.38
2023-03-29T23:31:18.493Z,98094.13
2023-03-29T23:33:45.544Z,98084.53
2023-03-29T23:36:21.381Z,98087.97
2023-03-29T23:38:54.175Z,98093.06
2023-03-29T23:41:28.380Z,98088.69
2023-03-29T23:43:57.669Z,98097.31
2023-03-29T23:46:28.723Z,98092.28
2023-03-29T23:49:01.775Z,98087.94
2023-03-29T23:51:30.598Z,98087.00
2023-03-29T23:53:57.497Z,98088.63
2023-03-29T23:56:26.953Z,98092.03
2023-03-29T23:58:59.035Z,98092.91
